Time;durP1;ratioP1;P1;durP2;ratioP2;P2;SDS_P1;SDS_P2;PMS_P1;PMS_P2;Temp;Humidity;BMP_temperature;BMP_pressure;BME280_temperature;BME280_humidity;BME280_pressure;Samples;Min_cycle;Max_cycle;Signal;HPM_P1;HPM_P2
2023/09/26 11:35:20;;;;;;;4.57;2.67;;;;;;;;;;4975241;28;20095;-81
2023/09/26 11:37:50;;;;;;;3.38;2.42;;;;;;;;;;4977744;28;20374;-81
2023/09/26 11:40:27;;;;;;;3.80;2.70;;;;;;;;;;4995659;28;20030;-82
2023/09/26 11:42:55;;;;;;;3.53;2.63;;;;;;;;;;4995436;28;20023;-81
2023/09/26 11:45:23;;;;;;;3.63;2.72;;;;;;;;;;4993975;28;20381;-81
2023/09/26 16:55:25;;;;;;;5.38;4.40;;;;;;;;;;5181316;22;20540;-82
2023/09/26 16:57:50;;;;;;;4.90;4.03;;;;;;;;;;5055638;28;20029;-81
2023/09/26 17:00:16;;;;;;;4.18;3.78;;;;;;;;;;5053296;28;20028;-80
2023/09/26 17:02:41;;;;;;;5.55;4.18;;;;;;;;;;5056421;28;20024;-79
2023/09/26 17:05:07;;;;;;;5.55;4.47;;;;;;;;;;5073092;28;20060;-80
2023/09/26 17:07:33;;;;;;;6.13;4.07;;;;;;;;;;5073288;28;20493;-79
2023/09/26 17:09:58;;;;;;;7.95;4.20;;;;;;;;;;5072947;28;20036;-79
2023/09/26 17:12:24;;;;;;;4.57;3.90;;;;;;;;;;5060791;28;20024;-84
2023/09/26 17:14:50;;;;;;;5.85;4.00;;;;;;;;;;5073064;28;20074;-82
2023/09/26 17:17:16;;;;;;;4.55;4.15;;;;;;;;;;5073199;28;20053;-82
2023/09/26 17:19:41;;;;;;;7.78;4.30;;;;;;;;;;5072966;28;20048;-82
2023/09/26 17:22:07;;;;;;;6.78;4.25;;;;;;;;;;5072715;28;20475;-81
2023/09/26 17:24:32;;;;;;;5.28;3.60;;;;;;;;;;5075284;28;20028;-81
2023/09/26 17:26:58;;;;;;;6.95;5.15;;;;;;;;;;5077102;28;20024;-81
2023/09/26 17:29:23;;;;;;;23.08;14.00;;;;;;;;;;5076987;28;20028;-81
2023/09/26 17:31:49;;;;;;;25.50;16.02;;;;;;;;;;5076715;28;20379;-81
2023/09/26 17:34:15;;;;;;;14.45;10.30;;;;;;;;;;5076796;28;20016;-81
2023/09/26 17:36:40;;;;;;;9.68;6.82;;;;;;;;;;5076785;28;20536;-80
2023/09/26 17:39:11;;;;;;;9.25;5.35;;;;;;;;;;5076865;28;20033;-81
2023/09/26 17:41:41;;;;;;;6.13;5.22;;;;;;;;;;5076682;28;20471;-80
2023/09/26 17:44:07;;;;;;;6.72;5.00;;;;;;;;;;5076583;28;20073;-79
2023/09/26 17:46:34;;;;;;;8.02;5.90;;;;;;;;;;5076691;28;20029;-80
2023/09/26 17:49:00;;;;;;;8.50;7.25;;;;;;;;;;5076295;28;20028;-80
2023/09/26 17:51:25;;;;;;;6.35;5.75;;;;;;;;;;5076147;28;20048;-80
2023/09/26 17:53:51;;;;;;;6.45;5.03;;;;;;;;;;5076423;28;20382;-81
2023/09/26 17:56:16;;;;;;;8.27;5.82;;;;;;;;;;5076464;28;20113;-79
2023/09/26 17:58:42;;;;;;;6.50;5.75;;;;;;;;;;5047236;28;20037;-82
2023/09/26 18:01:07;;;;;;;6.38;5.78;;;;;;;;;;5071800;28;20028;-82
2023/09/26 18:03:34;;;;;;;5.93;5.32;;;;;;;;;;5076270;28;20112;-83
2023/09/26 18:06:00;;;;;;;5.75;5.18;;;;;;;;;;5076646;28;20021;-82
2023/09/26 18:08:25;;;;;;;6.85;4.93;;;;;;;;;;5076458;28;20082;-83
2023/09/26 18:10:51;;;;;;;7.13;5.88;;;;;;;;;;5076509;28;20028;-84
2023/09/26 18:13:17;;;;;;;6.28;4.70;;;;;;;;;;5058235;28;20363;-80
2023/09/26 18:15:42;;;;;;;5.03;4.30;;;;;;;;;;5076399;28;20025;-80
2023/09/26 18:18:08;;;;;;;5.30;4.55;;;;;;;;;;5076034;28;20025;-80
2023/09/26 18:20:33;;;;;;;5.32;4.60;;;;;;;;;;5076393;28;20043;-79
2023/09/26 18:22:59;;;;;;;5.90;4.75;;;;;;;;;;5075584;28;20081;-78
2023/09/26 18:25:25;;;;;;;8.05;4.68;;;;;;;;;;5076044;28;20115;-77
2023/09/26 18:27:51;;;;;;;6.00;4.72;;;;;;;;;;5058156;28;20029;-78
2023/09/26 18:30:18;;;;;;;7.95;5.70;;;;;;;;;;5076017;28;20040;-81
2023/09/26 18:32:45;;;;;;;6.47;5.13;;;;;;;;;;5075646;28;20028;-79
2023/09/26 18:35:10;;;;;;;5.75;4.35;;;;;;;;;;5075468;28;20143;-78
2023/09/26 18:37:36;;;;;;;5.85;4.32;;;;;;;;;;5057909;28;20494;-79
2023/09/26 18:40:03;;;;;;;5.72;4.88;;;;;;;;;;5075798;28;20052;-83
2023/09/26 18:42:29;;;;;;;9.35;5.75;;;;;;;;;;5075998;28;20020;-82
2023/09/26 18:44:55;;;;;;;5.75;5.18;;;;;;;;;;5075715;28;20074;-81
2023/09/26 18:47:21;;;;;;;7.03;5.82;;;;;;;;;;5075669;28;20102;-78
2023/09/26 18:49:47;;;;;;;6.28;5.05;;;;;;;;;;5075892;28;20029;-80
2023/09/26 18:52:12;;;;;;;8.25;5.03;;;;;;;;;;5075749;28;20086;-77
2023/09/26 18:54:38;;;;;;;6.10;4.75;;;;;;;;;;5057594;28;20074;-79
2023/09/26 18:57:03;;;;;;;6.55;4.65;;;;;;;;;;5075761;28;20052;-78
2023/09/26 18:59:33;;;;;;;7.30;5.00;;;;;;;;;;5075546;28;20025;-80
2023/09/26 19:01:59;;;;;;;5.63;4.60;;;;;;;;;;5075216;28;20360;-79
2023/09/26 19:04:24;;;;;;;6.35;4.53;;;;;;;;;;5075877;28;20031;-79
2023/09/26 19:06:50;;;;;;;8.52;5.03;;;;;;;;;;5075643;28;20024;-79
2023/09/26 19:09:15;;;;;;;6.90;5.35;;;;;;;;;;5075538;28;20029;-78
2023/09/26 19:11:45;;;;;;;7.50;5.10;;;;;;;;;;5075150;28;20025;-79
2023/09/26 19:14:10;;;;;;;;;;;;;;;;;;5075887;28;20548;-80
2023/09/26 19:16:36;;;;;;;7.43;5.15;;;;;;;;;;5075031;28;19958;-78
2023/09/26 19:19:01;;;;;;;5.88;4.88;;;;;;;;;;5075578;28;20082;-78
2023/09/26 19:21:26;;;;;;;6.55;5.28;;;;;;;;;;5056901;28;20035;-78
2023/09/26 19:23:52;;;;;;;7.97;5.00;;;;;;;;;;5074978;28;20036;-78
2023/09/26 19:26:17;;;;;;;7.63;4.90;;;;;;;;;;5075035;28;20534;-78
2023/09/26 19:28:43;;;;;;;5.93;5.00;;;;;;;;;;5074772;28;20035;-82
2023/09/26 19:31:12;;;;;;;6.18;4.82;;;;;;;;;;5075053;28;20020;-78
2023/09/26 19:33:38;;;;;;;6.50;4.72;;;;;;;;;;5074723;28;20487;-78
2023/09/26 19:36:04;;;;;;;8.77;5.45;;;;;;;;;;5057519;28;20075;-78
2023/09/26 19:38:30;;;;;;;6.40;4.68;;;;;;;;;;5074771;28;20028;-78
2023/09/26 19:40:55;;;;;;;8.63;4.40;;;;;;;;;;5074790;28;20032;-79
2023/09/26 19:43:21;;;;;;;7.50;5.18;;;;;;;;;;5074587;28;20024;-82
2023/09/26 19:45:46;;;;;;;4.63;4.18;;;;;;;;;;5074155;28;20025;-83
2023/09/26 19:48:13;;;;;;;6.90;4.63;;;;;;;;;;5073878;28;20085;-82
2023/09/26 19:50:39;;;;;;;6.65;4.60;;;;;;;;;;5074318;28;20020;-83
2023/09/26 19:53:05;;;;;;;7.43;5.43;;;;;;;;;;5074474;28;20047;-82
2023/09/26 19:55:31;;;;;;;6.22;5.18;;;;;;;;;;5074117;28;20041;-83
2023/09/26 19:57:57;;;;;;;9.85;5.40;;;;;;;;;;5056577;28;20034;-80
2023/09/26 20:00:22;;;;;;;5.70;4.53;;;;;;;;;;5074422;28;20493;-78
2023/09/26 20:02:48;;;;;;;5.82;4.95;;;;;;;;;;5074376;28;20028;-81
2023/09/26 20:05:13;;;;;;;5.07;4.50;;;;;;;;;;5074136;28;20040;-80
2023/09/26 20:07:39;;;;;;;6.22;5.18;;;;;;;;;;5074492;28;20103;-79
2023/09/26 20:10:06;;;;;;;7.30;5.30;;;;;;;;;;5074174;28;20024;-80
2023/09/26 20:12:32;;;;;;;7.68;5.10;;;;;;;;;;5074086;28;20390;-81
2023/09/26 20:14:57;;;;;;;6.28;4.97;;;;;;;;;;5073944;28;20024;-79
2023/09/26 20:17:23;;;;;;;7.38;4.55;;;;;;;;;;5074276;28;20428;-80
2023/09/26 20:19:48;;;;;;;7.85;5.63;;;;;;;;;;5074190;28;20028;-79
2023/09/26 20:22:14;;;;;;;8.18;4.97;;;;;;;;;;5074071;28;20032;-81
2023/09/26 20:24:39;;;;;;;5.95;5.35;;;;;;;;;;5073963;28;20081;-79
2023/09/26 20:27:06;;;;;;;7.55;4.65;;;;;;;;;;5055823;28;20024;-81
2023/09/26 20:29:32;;;;;;;9.80;5.88;;;;;;;;;;5073908;28;20442;-79
2023/09/26 20:31:58;;;;;;;6.03;5.30;;;;;;;;;;5073528;28;20038;-78
2023/09/26 20:34:24;;;;;;;7.22;5.40;;;;;;;;;;5073765;28;20024;-79
2023/09/26 20:36:50;;;;;;;9.18;5.18;;;;;;;;;;5073867;28;20035;-80
2023/09/26 20:39:17;;;;;;;8.57;5.68;;;;;;;;;;5073630;28;20086;-81
2023/09/26 20:41:45;;;;;;;6.78;5.70;;;;;;;;;;5073382;28;20435;-80
2023/09/26 20:44:11;;;;;;;8.23;5.38;;;;;;;;;;5062766;28;20035;-79
2023/09/26 20:46:37;;;;;;;6.55;5.32;;;;;;;;;;5071792;28;20036;-81
2023/09/26 20:49:02;;;;;;;7.80;5.75;;;;;;;;;;5073279;28;20082;-81
2023/09/26 20:51:28;;;;;;;6.93;5.13;;;;;;;;;;5073087;28;20029;-77
2023/09/26 20:53:53;;;;;;;7.22;5.78;;;;;;;;;;5055261;28;20029;-80
2023/09/26 20:56:20;;;;;;;8.55;4.68;;;;;;;;;;5055250;28;20103;-82
2023/09/26 20:58:45;;;;;;;6.63;5.07;;;;;;;;;;5055128;28;20112;-83
2023/09/26 21:01:12;;;;;;;7.95;6.03;;;;;;;;;;5073019;28;20133;-81
2023/09/26 21:03:37;;;;;;;6.10;5.47;;;;;;;;;;5073211;28;20089;-81
2023/09/26 21:06:03;;;;;;;7.95;4.80;;;;;;;;;;5073513;28;20021;-80
2023/09/26 21:08:31;;;;;;;6.57;5.22;;;;;;;;;;5073161;28;20020;-81
2023/09/26 21:11:01;;;;;;;7.78;5.40;;;;;;;;;;5055122;28;20178;-81
2023/09/26 21:13:27;;;;;;;7.32;5.28;;;;;;;;;;5073076;28;20048;-81
2023/09/26 21:15:53;;;;;;;6.72;5.43;;;;;;;;;;5073442;28;20020;-81
2023/09/26 21:18:19;;;;;;;8.68;5.88;;;;;;;;;;5073109;28;20420;-82
2023/09/26 21:20:44;;;;;;;6.85;5.80;;;;;;;;;;5073325;28;20036;-82
2023/09/26 21:23:09;;;;;;;5.95;5.30;;;;;;;;;;5073123;28;20063;-82
2023/09/26 21:25:35;;;;;;;7.03;5.35;;;;;;;;;;5073127;28;20074;-80
2023/09/26 21:28:01;;;;;;;6.55;5.43;;;;;;;;;;5072979;28;20024;-81
2023/09/26 21:30:26;;;;;;;8.20;5.78;;;;;;;;;;5072987;28;20036;-80
2023/09/26 21:32:52;;;;;;;6.35;5.47;;;;;;;;;;5073054;28;20082;-82
2023/09/26 21:35:17;;;;;;;8.25;5.57;;;;;;;;;;5054988;28;20032;-79
2023/09/26 21:37:43;;;;;;;7.63;5.38;;;;;;;;;;5072117;28;20078;-80
2023/09/26 21:40:09;;;;;;;5.75;5.15;;;;;;;;;;5072812;28;20027;-79
2023/09/26 21:42:35;;;;;;;6.40;5.80;;;;;;;;;;5073002;28;20028;-81
2023/09/26 21:45:01;;;;;;;6.30;5.65;;;;;;;;;;5073299;28;20028;-80
2023/09/26 21:47:27;;;;;;;5.70;5.10;;;;;;;;;;5055207;28;20115;-81
2023/09/26 21:49:53;;;;;;;7.45;5.50;;;;;;;;;;5073171;28;20119;-80
2023/09/26 21:52:19;;;;;;;7.28;5.75;;;;;;;;;;5072968;28;20029;-80
2023/09/26 21:54:44;;;;;;;7.68;5.57;;;;;;;;;;5072949;28;20025;-80
2023/09/26 21:57:11;;;;;;;7.40;5.35;;;;;;;;;;5054763;28;20044;-80
2023/09/26 21:59:36;;;;;;;6.88;5.32;;;;;;;;;;5072878;28;20040;-80
2023/09/26 22:02:02;;;;;;;6.90;4.78;;;;;;;;;;5072980;28;20021;-79
2023/09/26 22:04:27;;;;;;;7.65;5.10;;;;;;;;;;5072977;28;20029;-79
2023/09/26 22:06:53;;;;;;;6.75;5.60;;;;;;;;;;5073055;28;20021;-80
2023/09/26 22:09:19;;;;;;;8.52;5.50;;;;;;;;;;5073024;28;20112;-80
2023/09/26 22:11:44;;;;;;;7.00;5.45;;;;;;;;;;5076111;28;20033;-80
2023/09/26 22:14:11;;;;;;;6.68;5.30;;;;;;;;;;5058426;28;20074;-81
2023/09/26 22:16:37;;;;;;;9.10;5.60;;;;;;;;;;5076278;28;20035;-81
2023/09/26 22:19:02;;;;;;;9.75;5.32;;;;;;;;;;5076618;28;20107;-79
2023/09/26 22:21:28;;;;;;;7.40;5.97;;;;;;;;;;5058679;28;20039;-80
2023/09/26 22:23:53;;;;;;;6.68;5.63;;;;;;;;;;5076129;28;20032;-80
2023/09/26 22:26:19;;;;;;;6.55;5.68;;;;;;;;;;5076351;28;20082;-81
2023/09/26 22:28:44;;;;;;;7.43;6.13;;;;;;;;;;5076051;28;20451;-80
2023/09/26 22:31:10;;;;;;;7.30;5.88;;;;;;;;;;5076053;28;20096;-81
2023/09/26 22:33:36;;;;;;;7.13;5.55;;;;;;;;;;5076017;28;20155;-84
